createdAt,value
2023-05-13T00:03:25.234Z,11.6
2023-05-13T00:18:25.112Z,11.6
2023-05-13T00:33:25.054Z,11.5
2023-05-13T00:48:25.052Z,11.5
2023-05-13T01:03:25.000Z,11.4
2023-05-13T01:18:25.078Z,11.2
2023-05-13T01:33:24.961Z,11.1
2023-05-13T01:48:24.994Z,11
2023-05-13T02:03:25.032Z,10.8
2023-05-13T02:18:24.983Z,10.7
2023-05-13T02:33:24.897Z,10.8
2023-05-13T02:48:24.933Z,10.6
2023-05-13T03:03:25.149Z,10.6
2023-05-13T03:18:24.870Z,10.5
2023-05-13T03:33:24.827Z,10.4
2023-05-13T03:48:24.858Z,10.4
2023-05-13T04:03:24.944Z,10.2
2023-05-13T04:18:24.816Z,10.2
2023-05-13T04:33:24.773Z,10.3
2023-05-13T04:48:24.754Z,10.3
2023-05-13T05:03:24.756Z,10.4
2023-05-13T05:18:24.854Z,10.5
2023-05-13T05:33:24.694Z,10.7
2023-05-13T05:48:24.717Z,10.8
2023-05-13T06:03:24.850Z,11
2023-05-13T06:18:24.751Z,11.5
2023-05-13T06:33:24.705Z,11.9
2023-05-13T06:48:24.659Z,12
2023-05-13T07:03:24.587Z,12.6
2023-05-13T07:18:24.723Z,12.8
2023-05-13T07:33:24.568Z,14
2023-05-13T07:48:24.570Z,15.1
2023-05-13T08:03:24.574Z,17.1
2023-05-13T08:18:24.575Z,17.8
2023-05-13T08:33:24.468Z,17.3
2023-05-13T08:48:24.469Z,16.5
2023-05-13T09:03:24.426Z,15.9
2023-05-13T09:18:24.622Z,15.7
2023-05-13T09:33:24.359Z,16.3
2023-05-13T09:48:24.402Z,16.4
2023-05-13T10:03:24.342Z,16.4
2023-05-13T10:18:24.473Z,16.4
2023-05-13T10:33:24.279Z,16.8
2023-05-13T10:48:24.437Z,16.4
2023-05-13T11:03:25.578Z,16.5
2023-05-13T11:18:24.288Z,16.4
2023-05-13T11:33:24.186Z,16.3
2023-05-13T11:48:24.256Z,16.1
2023-05-13T12:03:24.138Z,16.2
2023-05-13T12:18:24.209Z,16
2023-05-13T12:33:24.079Z,15.9
2023-05-13T12:48:24.104Z,15.9
2023-05-13T13:03:24.638Z,16.1
2023-05-13T13:18:24.059Z,16
2023-05-13T13:33:23.987Z,15.9
2023-05-13T13:48:24.028Z,15.8
2023-05-13T14:03:23.991Z,15
2023-05-13T14:18:23.967Z,13.8
2023-05-13T14:33:23.913Z,13.1
2023-05-13T14:48:23.900Z,12.7
2023-05-13T15:03:23.932Z,12.5
2023-05-13T15:18:23.904Z,12.7
2023-05-13T15:33:23.828Z,13.4
2023-05-13T15:48:23.900Z,13.8
2023-05-13T16:03:23.764Z,14.2
2023-05-13T16:18:23.856Z,14.4
2023-05-13T16:33:23.716Z,14.4
2023-05-13T16:48:23.815Z,14.2
2023-05-13T17:03:23.912Z,13.9
2023-05-13T17:18:23.792Z,13
2023-05-13T17:33:23.654Z,12.9
2023-05-13T17:48:23.721Z,13
2023-05-13T18:03:23.605Z,12.9
2023-05-13T18:18:23.697Z,12.6
2023-05-13T18:33:23.590Z,12.3
2023-05-13T18:48:23.549Z,12.4
2023-05-13T19:03:23.600Z,12.5
2023-05-13T19:18:23.563Z,12.2
2023-05-13T19:33:23.493Z,11.9
2023-05-13T19:48:23.503Z,11.8
2023-05-13T20:03:23.595Z,11.9
2023-05-13T20:18:23.519Z,11.7
2023-05-13T20:33:23.419Z,11.6
2023-05-13T20:48:23.446Z,11.6
2023-05-13T21:03:23.508Z,11.4
2023-05-13T21:18:23.476Z,11.3
2023-05-13T21:33:23.350Z,11.3
2023-05-13T21:48:23.392Z,11.3
2023-05-13T22:03:23.365Z,11.3
2023-05-13T22:18:23.562Z,11.2
2023-05-13T22:33:23.284Z,11.2
2023-05-13T22:48:23.311Z,11.2
2023-05-13T23:03:23.236Z,11.1
2023-05-13T23:18:23.254Z,11.2
2023-05-13T23:33:23.212Z,11.2
2023-05-13T23:48:23.217Z,11
